sensor_id;sensor_type;location;lat;lon;timestamp;pressure;altitude;pressure_sealevel;temperature;humidity
38197;BME280;26543;51.976;4.616;2022-07-06T00:01:15;52459.84;;;-140.72;100.00
38197;BME280;26543;51.976;4.616;2022-07-06T00:03:41;52447.69;;;-140.72;100.00
38197;BME280;26543;51.976;4.616;2022-07-06T00:06:06;52478.13;;;-140.72;100.00
38197;BME280;26543;51.976;4.616;2022-07-06T00:08:31;52417.25;;;-140.72;100.00
38197;BME280;26543;51.976;4.616;2022-07-06T00:10:56;52484.19;;;-140.72;100.00
38197;BME280;26543;51.976;4.616;2022-07-06T00:13:22;52455.78;;;-140.72;100.00
38197;BME280;26543;51.976;4.616;2022-07-06T00:15:47;52427.38;;;-140.72;100.00
38197;BME280;26543;51.976;4.616;2022-07-06T00:18:12;52480.16;;;-140.72;100.00
38197;BME280;26543;51.976;4.616;2022-07-06T00:20:38;52472.03;;;-140.72;100.00
38197;BME280;26543;51.976;4.616;2022-07-06T00:23:03;52482.16;;;-140.72;100.00
38197;BME280;26543;51.976;4.616;2022-07-06T00:25:28;52476.09;;;-140.72;100.00
38197;BME280;26543;51.976;4.616;2022-07-06T00:27:53;52480.16;;;-140.72;100.00
38197;BME280;26543;51.976;4.616;2022-07-06T00:30:18;52431.44;;;-140.72;100.00
38197;BME280;26543;51.976;4.616;2022-07-06T00:32:44;52488.25;;;-140.72;100.00
38197;BME280;26543;51.976;4.616;2022-07-06T00:35:09;52447.69;;;-140.72;100.00
38197;BME280;26543;51.976;4.616;2022-07-06T00:37:34;52443.63;;;-140.72;100.00
38197;BME280;26543;51.976;4.616;2022-07-06T00:39:59;52447.69;;;-140.72;100.00
38197;BME280;26543;51.976;4.616;2022-07-06T00:42:27;52427.38;;;-140.72;100.00
38197;BME280;26543;51.976;4.616;2022-07-06T00:44:52;52433.47;;;-140.72;100.00
38197;BME280;26543;51.976;4.616;2022-07-06T00:47:17;52484.19;;;-140.72;100.00
38197;BME280;26543;51.976;4.616;2022-07-06T00:49:42;52492.31;;;-140.72;100.00
38197;BME280;26543;51.976;4.616;2022-07-06T00:52:26;52463.91;;;-140.72;100.00
38197;BME280;26543;51.976;4.616;2022-07-06T00:54:51;52472.03;;;-140.72;100.00
38197;BME280;26543;51.976;4.616;2022-07-06T00:57:17;52463.91;;;-140.72;100.00
38197;BME280;26543;51.976;4.616;2022-07-06T00:59:42;52435.50;;;-140.72;100.00
38197;BME280;26543;51.976;4.616;2022-07-06T01:02:07;52482.16;;;-140.72;100.00
38197;BME280;26543;51.976;4.616;2022-07-06T01:04:32;52470.00;;;-140.72;100.00
38197;BME280;26543;51.976;4.616;2022-07-06T01:06:58;52439.56;;;-140.72;100.00
38197;BME280;26543;51.976;4.616;2022-07-06T01:09:23;52451.72;;;-140.72;100.00
38197;BME280;26543;51.976;4.616;2022-07-06T01:11:48;52488.25;;;-140.72;100.00
38197;BME280;26543;51.976;4.616;2022-07-06T01:14:14;52490.28;;;-140.72;100.00
38197;BME280;26543;51.976;4.616;2022-07-06T01:16:40;52510.59;;;-140.72;100.00
38197;BME280;26543;51.976;4.616;2022-07-06T01:19:05;52443.63;;;-140.72;100.00
38197;BME280;26543;51.976;4.616;2022-07-06T01:21:30;52492.31;;;-140.72;100.00
38197;BME280;26543;51.976;4.616;2022-07-06T01:23:55;52470.00;;;-140.72;100.00
38197;BME280;26543;51.976;4.616;2022-07-06T01:26:21;52463.91;;;-140.72;100.00
38197;BME280;26543;51.976;4.616;2022-07-06T01:28:47;52500.44;;;-140.72;100.00
38197;BME280;26543;51.976;4.616;2022-07-06T01:31:23;52496.38;;;-140.72;100.00
38197;BME280;26543;51.976;4.616;2022-07-06T01:33:48;52435.50;;;-140.72;100.00
38197;BME280;26543;51.976;4.616;2022-07-06T01:36:14;52463.91;;;-140.72;100.00
38197;BME280;26543;51.976;4.616;2022-07-06T01:38:44;52504.50;;;-140.72;100.00
38197;BME280;26543;51.976;4.616;2022-07-06T01:41:09;52455.78;;;-140.72;100.00
38197;BME280;26543;51.976;4.616;2022-07-06T01:43:34;52439.56;;;-140.72;100.00
38197;BME280;26543;51.976;4.616;2022-07-06T01:45:59;52457.81;;;-140.72;100.00
38197;BME280;26543;51.976;4.616;2022-07-06T01:48:25;52496.38;;;-140.72;100.00
38197;BME280;26543;51.976;4.616;2022-07-06T01:50:50;52457.81;;;-140.72;100.00
38197;BME280;26543;51.976;4.616;2022-07-06T01:53:15;52467.97;;;-140.72;100.00
38197;BME280;26543;51.976;4.616;2022-07-06T01:55:40;52459.84;;;-140.72;100.00
38197;BME280;26543;51.976;4.616;2022-07-06T01:58:05;52449.72;;;-140.72;100.00
38197;BME280;26543;51.976;4.616;2022-07-06T02:00:31;52459.84;;;-140.72;100.00
38197;BME280;26543;51.976;4.616;2022-07-06T02:02:56;52488.25;;;-140.72;100.00
38197;BME280;26543;51.976;4.616;2022-07-06T02:05:21;52500.44;;;-140.72;100.00
38197;BME280;26543;51.976;4.616;2022-07-06T02:07:46;52461.88;;;-140.72;100.00
38197;BME280;26543;51.976;4.616;2022-07-06T02:10:13;52447.69;;;-140.72;100.00
38197;BME280;26543;51.976;4.616;2022-07-06T02:12:38;52467.97;;;-140.72;100.00
38197;BME280;26543;51.976;4.616;2022-07-06T02:15:03;52472.03;;;-140.72;100.00
38197;BME280;26543;51.976;4.616;2022-07-06T02:17:29;52484.19;;;-140.72;100.00
38197;BME280;26543;51.976;4.616;2022-07-06T02:19:54;52472.03;;;-140.72;100.00
38197;BME280;26543;51.976;4.616;2022-07-06T02:22:19;52478.13;;;-140.72;100.00
38197;BME280;26543;51.976;4.616;2022-07-06T02:24:44;52467.97;;;-140.72;100.00
38197;BME280;26543;51.976;4.616;2022-07-06T02:27:09;52453.75;;;-140.72;100.00
38197;BME280;26543;51.976;4.616;2022-07-06T02:29:35;52488.25;;;-140.72;100.00
38197;BME280;26543;51.976;4.616;2022-07-06T02:32:00;52476.09;;;-140.72;100.00
38197;BME280;26543;51.976;4.616;2022-07-06T02:34:26;52463.91;;;-140.72;100.00
38197;BME280;26543;51.976;4.616;2022-07-06T02:36:51;52467.97;;;-140.72;100.00
38197;BME280;26543;51.976;4.616;2022-07-06T02:39:16;52439.56;;;-140.72;100.00
38197;BME280;26543;51.976;4.616;2022-07-06T02:41:41;52472.03;;;-140.72;100.00
38197;BME280;26543;51.976;4.616;2022-07-06T02:44:06;52447.69;;;-140.72;100.00
38197;BME280;26543;51.976;4.616;2022-07-06T02:46:32;52486.22;;;-140.72;100.00
38197;BME280;26543;51.976;4.616;2022-07-06T02:48:57;52504.50;;;-140.72;100.00
38197;BME280;26543;51.976;4.616;2022-07-06T02:51:22;52467.97;;;-140.72;100.00
38197;BME280;26543;51.976;4.616;2022-07-06T02:53:48;52480.16;;;-140.72;100.00
38197;BME280;26543;51.976;4.616;2022-07-06T02:56:13;52482.16;;;-140.72;100.00
38197;BME280;26543;51.976;4.616;2022-07-06T02:58:39;52451.72;;;-140.72;100.00
38197;BME280;26543;51.976;4.616;2022-07-06T03:01:04;52482.16;;;-140.72;100.00
38197;BME280;26543;51.976;4.616;2022-07-06T03:03:29;52459.84;;;-140.72;100.00
38197;BME280;26543;51.976;4.616;2022-07-06T03:05:54;52520.72;;;-140.72;100.00
38197;BME280;26543;51.976;4.616;2022-07-06T03:08:19;52472.03;;;-140.72;100.00
38197;BME280;26543;51.976;4.616;2022-07-06T03:10:45;52496.38;;;-140.72;100.00
38197;BME280;26543;51.976;4.616;2022-07-06T03:13:10;52467.97;;;-140.72;100.00
38197;BME280;26543;51.976;4.616;2022-07-06T03:15:35;52470.00;;;-140.72;100.00
38197;BME280;26543;51.976;4.616;2022-07-06T03:18:00;52451.72;;;-140.72;100.00
38197;BME280;26543;51.976;4.616;2022-07-06T03:20:27;52490.28;;;-140.72;100.00
38197;BME280;26543;51.976;4.616;2022-07-06T03:22:52;52476.09;;;-140.72;100.00
38197;BME280;26543;51.976;4.616;2022-07-06T03:25:17;52423.31;;;-140.72;100.00
38197;BME280;26543;51.976;4.616;2022-07-06T03:27:42;52486.22;;;-140.72;100.00
38197;BME280;26543;51.976;4.616;2022-07-06T03:30:08;52463.91;;;-140.72;100.00
38197;BME280;26543;51.976;4.616;2022-07-06T03:32:33;52445.66;;;-140.72;100.00
38197;BME280;26543;51.976;4.616;2022-07-06T03:34:58;52455.78;;;-140.72;100.00
38197;BME280;26543;51.976;4.616;2022-07-06T03:37:24;52484.19;;;-140.72;100.00
38197;BME280;26543;51.976;4.616;2022-07-06T03:39:49;52451.72;;;-140.72;100.00
38197;BME280;26543;51.976;4.616;2022-07-06T03:42:14;52504.50;;;-140.72;100.00
38197;BME280;26543;51.976;4.616;2022-07-06T03:44:39;52474.06;;;-140.72;100.00
38197;BME280;26543;51.976;4.616;2022-07-06T03:47:04;52484.19;;;-140.72;100.00
38197;BME280;26543;51.976;4.616;2022-07-06T03:49:30;52439.56;;;-140.72;100.00
38197;BME280;26543;51.976;4.616;2022-07-06T03:51:55;52476.09;;;-140.72;100.00
38197;BME280;26543;51.976;4.616;2022-07-06T03:54:20;52457.81;;;-140.72;100.00
38197;BME280;26543;51.976;4.616;2022-07-06T03:56:46;52437.53;;;-140.72;100.00
38197;BME280;26543;51.976;4.616;2022-07-06T03:59:11;52500.44;;;-140.72;100.00
38197;BME280;26543;51.976;4.616;2022-07-06T04:01:36;52445.66;;;-140.72;100.00
38197;BME280;26543;51.976;4.616;2022-07-06T04:04:01;52461.88;;;-140.72;100.00
38197;BME280;26543;51.976;4.616;2022-07-06T04:06:27;52463.91;;;-140.72;100.00
38197;BME280;26543;51.976;4.616;2022-07-06T04:08:52;52439.56;;;-140.72;100.00
38197;BME280;26543;51.976;4.616;2022-07-06T04:11:17;52445.66;;;-140.72;100.00
38197;BME280;26543;51.976;4.616;2022-07-06T04:13:42;52463.91;;;-140.72;100.00
38197;BME280;26543;51.976;4.616;2022-07-06T04:16:08;52429.41;;;-140.72;100.00
38197;BME280;26543;51.976;4.616;2022-07-06T04:18:33;52447.69;;;-140.72;100.00
38197;BME280;26543;51.976;4.616;2022-07-06T04:20:58;52429.41;;;-140.72;100.00
38197;BME280;26543;51.976;4.616;2022-07-06T04:23:24;52463.91;;;-140.72;100.00
38197;BME280;26543;51.976;4.616;2022-07-06T04:25:49;52455.78;;;-140.72;100.00
38197;BME280;26543;51.976;4.616;2022-07-06T04:28:14;52463.91;;;-140.72;100.00
38197;BME280;26543;51.976;4.616;2022-07-06T04:30:40;52433.47;;;-140.72;100.00
38197;BME280;26543;51.976;4.616;2022-07-06T04:33:05;52411.16;;;-140.72;100.00
38197;BME280;26543;51.976;4.616;2022-07-06T04:35:30;52451.72;;;-140.72;100.00
38197;BME280;26543;51.976;4.616;2022-07-06T04:37:55;52427.38;;;-140.72;100.00
38197;BME280;26543;51.976;4.616;2022-07-06T04:40:20;52433.47;;;-140.72;100.00
38197;BME280;26543;51.976;4.616;2022-07-06T04:42:46;52459.84;;;-140.72;100.00
38197;BME280;26543;51.976;4.616;2022-07-06T04:45:11;52433.47;;;-140.72;100.00
38197;BME280;26543;51.976;4.616;2022-07-06T04:47:37;52419.28;;;-140.72;100.00
38197;BME280;26543;51.976;4.616;2022-07-06T04:50:02;52433.47;;;-140.72;100.00
38197;BME280;26543;51.976;4.616;2022-07-06T04:52:28;52419.28;;;-140.72;100.00
38197;BME280;26543;51.976;4.616;2022-07-06T04:54:56;52405.06;;;-140.72;100.00
38197;BME280;26543;51.976;4.616;2022-07-06T04:57:21;52394.91;;;-140.72;100.00
38197;BME280;26543;51.976;4.616;2022-07-06T04:59:46;52455.78;;;-140.72;100.00
38197;BME280;26543;51.976;4.616;2022-07-06T05:02:12;52396.94;;;-140.72;100.00
38197;BME280;26543;51.976;4.616;2022-07-06T05:04:37;52435.50;;;-140.72;100.00
38197;BME280;26543;51.976;4.616;2022-07-06T05:07:02;52437.53;;;-140.72;100.00
38197;BME280;26543;51.976;4.616;2022-07-06T05:09:28;52405.06;;;-140.72;100.00
38197;BME280;26543;51.976;4.616;2022-07-06T05:11:53;52386.81;;;-140.72;100.00
38197;BME280;26543;51.976;4.616;2022-07-06T05:14:18;52449.72;;;-140.72;100.00
38197;BME280;26543;51.976;4.616;2022-07-06T05:16:43;52431.44;;;-140.72;100.00
38197;BME280;26543;51.976;4.616;2022-07-06T05:19:08;52429.41;;;-140.72;100.00
38197;BME280;26543;51.976;4.616;2022-07-06T05:21:34;52455.78;;;-140.72;100.00
38197;BME280;26543;51.976;4.616;2022-07-06T05:23:59;52459.84;;;-140.72;100.00
38197;BME280;26543;51.976;4.616;2022-07-06T05:26:24;52431.44;;;-140.72;100.00
38197;BME280;26543;51.976;4.616;2022-07-06T05:28:49;52398.97;;;-140.72;100.00
38197;BME280;26543;51.976;4.616;2022-07-06T05:31:14;52447.69;;;-140.72;100.00
38197;BME280;26543;51.976;4.616;2022-07-06T05:33:40;52421.28;;;-140.72;100.00
38197;BME280;26543;51.976;4.616;2022-07-06T05:36:05;52374.63;;;-140.72;100.00
38197;BME280;26543;51.976;4.616;2022-07-06T05:38:30;52427.38;;;-140.72;100.00
38197;BME280;26543;51.976;4.616;2022-07-06T05:40:56;52386.81;;;-140.72;100.00
38197;BME280;26543;51.976;4.616;2022-07-06T05:43:21;52407.09;;;-140.72;100.00
38197;BME280;26543;51.976;4.616;2022-07-06T05:45:46;52398.97;;;-140.72;100.00
38197;BME280;26543;51.976;4.616;2022-07-06T05:48:11;52378.69;;;-140.72;100.00
38197;BME280;26543;51.976;4.616;2022-07-06T05:50:55;52384.78;;;-140.72;100.00
38197;BME280;26543;51.976;4.616;2022-07-06T05:53:21;52394.91;;;-140.72;100.00
38197;BME280;26543;51.976;4.616;2022-07-06T05:55:46;52433.47;;;-140.72;100.00
38197;BME280;26543;51.976;4.616;2022-07-06T05:58:12;52411.16;;;-140.72;100.00
38197;BME280;26543;51.976;4.616;2022-07-06T06:00:37;52376.66;;;-140.72;100.00
38197;BME280;26543;51.976;4.616;2022-07-06T06:03:02;52386.81;;;-140.72;100.00
38197;BME280;26543;51.976;4.616;2022-07-06T06:05:27;52382.75;;;-140.72;100.00
38197;BME280;26543;51.976;4.616;2022-07-06T06:07:52;52358.41;;;-140.72;100.00
38197;BME280;26543;51.976;4.616;2022-07-06T06:10:18;52354.34;;;-140.72;100.00
38197;BME280;26543;51.976;4.616;2022-07-06T06:12:44;52356.38;;;-140.72;100.00
38197;BME280;26543;51.976;4.616;2022-07-06T06:15:10;52366.50;;;-140.72;100.00
38197;BME280;26543;51.976;4.616;2022-07-06T06:17:36;52358.41;;;-140.72;100.00
38197;BME280;26543;51.976;4.616;2022-07-06T06:20:02;52340.13;;;-140.72;100.00
38197;BME280;26543;51.976;4.616;2022-07-06T06:22:28;52344.19;;;-140.72;100.00
38197;BME280;26543;51.976;4.616;2022-07-06T06:24:53;52332.03;;;-140.72;100.00
38197;BME280;26543;51.976;4.616;2022-07-06T06:27:18;52368.53;;;-140.72;100.00
38197;BME280;26543;51.976;4.616;2022-07-06T06:29:43;52352.31;;;-140.72;100.00
38197;BME280;26543;51.976;4.616;2022-07-06T06:32:12;52360.44;;;-140.72;100.00
38197;BME280;26543;51.976;4.616;2022-07-06T06:34:37;52352.31;;;-140.72;100.00
38197;BME280;26543;51.976;4.616;2022-07-06T06:37:03;52354.34;;;-140.72;100.00
38197;BME280;26543;51.976;4.616;2022-07-06T06:39:28;52334.03;;;-140.72;100.00
38197;BME280;26543;51.976;4.616;2022-07-06T06:41:53;52346.22;;;-140.72;100.00
38197;BME280;26543;51.976;4.616;2022-07-06T06:44:18;52342.16;;;-140.72;100.00
38197;BME280;26543;51.976;4.616;2022-07-06T06:46:44;52307.66;;;-140.72;100.00
38197;BME280;26543;51.976;4.616;2022-07-06T06:49:09;52340.13;;;-140.72;100.00
38197;BME280;26543;51.976;4.616;2022-07-06T06:51:34;52348.25;;;-140.72;100.00
38197;BME280;26543;51.976;4.616;2022-07-06T06:54:00;52352.31;;;-140.72;100.00
38197;BME280;26543;51.976;4.616;2022-07-06T06:56:25;52303.59;;;-140.72;100.00
38197;BME280;26543;51.976;4.616;2022-07-06T06:58:50;52340.13;;;-140.72;100.00
38197;BME280;26543;51.976;4.616;2022-07-06T07:01:15;52334.03;;;-140.72;100.00
38197;BME280;26543;51.976;4.616;2022-07-06T07:03:40;52309.69;;;-140.72;100.00
38197;BME280;26543;51.976;4.616;2022-07-06T07:06:06;52334.03;;;-140.72;100.00
38197;BME280;26543;51.976;4.616;2022-07-06T07:08:31;52283.31;;;-140.72;100.00
38197;BME280;26543;51.976;4.616;2022-07-06T07:10:57;52323.91;;;-140.72;100.00
38197;BME280;26543;51.976;4.616;2022-07-06T07:13:22;52303.59;;;-140.72;100.00
38197;BME280;26543;51.976;4.616;2022-07-06T07:15:48;52285.34;;;-140.72;100.00
38197;BME280;26543;51.976;4.616;2022-07-06T07:18:13;52315.78;;;-140.72;100.00
38197;BME280;26543;51.976;4.616;2022-07-06T07:20:38;52285.34;;;-140.72;100.00
38197;BME280;26543;51.976;4.616;2022-07-06T07:23:03;52330.00;;;-140.72;100.00
38197;BME280;26543;51.976;4.616;2022-07-06T07:25:29;52269.13;;;-140.72;100.00
38197;BME280;26543;51.976;4.616;2022-07-06T07:27:54;52297.53;;;-140.72;100.00
38197;BME280;26543;51.976;4.616;2022-07-06T07:30:19;52289.41;;;-140.72;100.00
38197;BME280;26543;51.976;4.616;2022-07-06T07:32:45;52338.09;;;-140.72;100.00
38197;BME280;26543;51.976;4.616;2022-07-06T07:35:10;52242.75;;;-140.72;100.00
38197;BME280;26543;51.976;4.616;2022-07-06T07:37:35;52301.59;;;-140.72;100.00
38197;BME280;26543;51.976;4.616;2022-07-06T07:40:00;52289.41;;;-140.72;100.00
38197;BME280;26543;51.976;4.616;2022-07-06T07:42:26;52291.44;;;-140.72;100.00
38197;BME280;26543;51.976;4.616;2022-07-06T07:44:51;52244.78;;;-140.72;100.00
38197;BME280;26543;51.976;4.616;2022-07-06T07:47:16;52258.97;;;-140.72;100.00
38197;BME280;26543;51.976;4.616;2022-07-06T07:49:41;52263.03;;;-140.72;100.00
38197;BME280;26543;51.976;4.616;2022-07-06T07:52:07;52230.56;;;-140.72;100.00
38197;BME280;26543;51.976;4.616;2022-07-06T07:54:32;52250.84;;;-140.72;100.00
38197;BME280;26543;51.976;4.616;2022-07-06T07:56:58;52256.94;;;-140.72;100.00
38197;BME280;26543;51.976;4.616;2022-07-06T07:59:23;52230.56;;;-140.72;100.00
38197;BME280;26543;51.976;4.616;2022-07-06T08:01:48;52228.53;;;-140.72;100.00
38197;BME280;26543;51.976;4.616;2022-07-06T08:04:14;52238.69;;;-140.72;100.00
38197;BME280;26543;51.976;4.616;2022-07-06T08:06:39;52230.56;;;-140.72;100.00
38197;BME280;26543;51.976;4.616;2022-07-06T08:09:04;52214.34;;;-140.72;100.00
38197;BME280;26543;51.976;4.616;2022-07-06T08:11:32;52196.06;;;-140.72;100.00
38197;BME280;26543;51.976;4.616;2022-07-06T08:13:57;52187.97;;;-140.72;100.00
38197;BME280;26543;51.976;4.616;2022-07-06T08:16:22;52189.97;;;-140.72;100.00
38197;BME280;26543;51.976;4.616;2022-07-06T08:18:48;52167.66;;;-140.72;100.00
38197;BME280;26543;51.976;4.616;2022-07-06T08:21:13;52159.56;;;-140.72;100.00
38197;BME280;26543;51.976;4.616;2022-07-06T08:23:38;52183.91;;;-140.72;100.00
38197;BME280;26543;51.976;4.616;2022-07-06T08:26:03;52163.59;;;-140.72;100.00
38197;BME280;26543;51.976;4.616;2022-07-06T08:28:29;52171.72;;;-140.72;100.00
38197;BME280;26543;51.976;4.616;2022-07-06T08:30:54;52155.50;;;-140.72;100.00
38197;BME280;26543;51.976;4.616;2022-07-06T08:33:20;52157.53;;;-140.72;100.00
38197;BME280;26543;51.976;4.616;2022-07-06T08:35:45;52135.19;;;-140.72;100.00
38197;BME280;26543;51.976;4.616;2022-07-06T08:38:10;52159.56;;;-140.72;100.00
38197;BME280;26543;51.976;4.616;2022-07-06T08:40:35;52171.72;;;-140.72;100.00
38197;BME280;26543;51.976;4.616;2022-07-06T08:43:03;52159.56;;;-140.72;100.00
38197;BME280;26543;51.976;4.616;2022-07-06T08:45:29;52155.50;;;-140.72;100.00
38197;BME280;26543;51.976;4.616;2022-07-06T08:47:54;52147.38;;;-140.72;100.00
38197;BME280;26543;51.976;4.616;2022-07-06T08:50:20;52157.53;;;-140.72;100.00
38197;BME280;26543;51.976;4.616;2022-07-06T08:52:47;52167.66;;;-140.72;100.00
38197;BME280;26543;51.976;4.616;2022-07-06T08:55:12;52159.56;;;-140.72;100.00
38197;BME280;26543;51.976;4.616;2022-07-06T08:57:38;52161.56;;;-140.72;100.00
38197;BME280;26543;51.976;4.616;2022-07-06T09:00:05;52141.28;;;-140.72;100.00
38197;BME280;26543;51.976;4.616;2022-07-06T09:02:31;52163.59;;;-140.72;100.00
38197;BME280;26543;51.976;4.616;2022-07-06T09:05:02;52173.75;;;-140.72;100.00
38197;BME280;26543;51.976;4.616;2022-07-06T09:07:28;52133.16;;;-140.72;100.00
38197;BME280;26543;51.976;4.616;2022-07-06T09:09:54;52129.13;;;-140.72;100.00
38197;BME280;26543;51.976;4.616;2022-07-06T09:12:19;52163.59;;;-140.72;100.00
38197;BME280;26543;51.976;4.616;2022-07-06T09:14:44;52110.84;;;-140.72;100.00
38197;BME280;26543;51.976;4.616;2022-07-06T09:17:10;52137.22;;;-140.72;100.00
38197;BME280;26543;51.976;4.616;2022-07-06T09:19:37;52125.06;;;-140.72;100.00
38197;BME280;26543;51.976;4.616;2022-07-06T09:22:02;52123.03;;;-140.72;100.00
38197;BME280;26543;51.976;4.616;2022-07-06T09:24:28;52143.31;;;-140.72;100.00
38197;BME280;26543;51.976;4.616;2022-07-06T09:26:54;52100.72;;;-140.72;100.00
38197;BME280;26543;51.976;4.616;2022-07-06T09:29:26;52161.56;;;-140.72;100.00
38197;BME280;26543;51.976;4.616;2022-07-06T09:32:01;52088.53;;;-140.72;100.00
38197;BME280;26543;51.976;4.616;2022-07-06T09:34:42;52100.72;;;-140.72;100.00
38197;BME280;26543;51.976;4.616;2022-07-06T09:37:08;52072.31;;;-140.72;100.00
38197;BME280;26543;51.976;4.616;2022-07-06T09:39:33;52102.75;;;-140.72;100.00
38197;BME280;26543;51.976;4.616;2022-07-06T09:41:59;52064.19;;;-140.72;100.00
38197;BME280;26543;51.976;4.616;2022-07-06T09:44:29;52098.69;;;-140.72;100.00
38197;BME280;26543;51.976;4.616;2022-07-06T09:46:55;52094.63;;;-140.72;100.00
38197;BME280;26543;51.976;4.616;2022-07-06T09:49:21;52047.97;;;-140.72;100.00
38197;BME280;26543;51.976;4.616;2022-07-06T09:51:47;52041.88;;;-140.72;100.00
38197;BME280;26543;51.976;4.616;2022-07-06T09:54:13;52062.16;;;-140.72;100.00
38197;BME280;26543;51.976;4.616;2022-07-06T09:56:39;52066.22;;;-140.72;100.00
38197;BME280;26543;51.976;4.616;2022-07-06T09:59:07;52082.44;;;-140.72;100.00
38197;BME280;26543;51.976;4.616;2022-07-06T10:01:32;52102.75;;;-140.72;100.00
38197;BME280;26543;51.976;4.616;2022-07-06T10:03:58;52045.94;;;-140.72;100.00
38197;BME280;26543;51.976;4.616;2022-07-06T10:06:24;52023.59;;;-140.72;100.00
38197;BME280;26543;51.976;4.616;2022-07-06T10:08:49;51972.88;;;-140.72;100.00
38197;BME280;26543;51.976;4.616;2022-07-06T10:11:15;51974.91;;;-140.72;93.04
38197;BME280;26543;51.976;4.616;2022-07-06T10:13:40;51981.00;;;-140.72;93.29
38197;BME280;26543;51.976;4.616;2022-07-06T10:16:07;51972.88;;;-140.72;95.81
38197;BME280;26543;51.976;4.616;2022-07-06T10:18:32;51970.84;;;-140.72;87.19
38197;BME280;26543;51.976;4.616;2022-07-06T10:20:58;51948.53;;;-140.72;88.18
38197;BME280;26543;51.976;4.616;2022-07-06T10:23:24;51952.59;;;-140.72;84.49
38197;BME280;26543;51.976;4.616;2022-07-06T10:25:50;52009.41;;;-140.72;86.20
38197;BME280;26543;51.976;4.616;2022-07-06T10:28:16;51962.75;;;-140.72;93.69
38197;BME280;26543;51.976;4.616;2022-07-06T10:30:42;51916.06;;;-140.72;92.58
38197;BME280;26543;51.976;4.616;2022-07-06T10:33:08;51887.66;;;-140.72;83.90
38197;BME280;26543;51.976;4.616;2022-07-06T10:35:34;51826.81;;;-140.72;75.90
38197;BME280;26543;51.976;4.616;2022-07-06T10:38:06;51784.19;;;-140.72;70.86
38197;BME280;26543;51.976;4.616;2022-07-06T10:40:35;51786.22;;;-140.72;73.26
38197;BME280;26543;51.976;4.616;2022-07-06T10:43:19;51794.34;;;-140.72;70.82
38197;BME280;26543;51.976;4.616;2022-07-06T10:50:38;51737.53;;;-140.72;59.78
38197;BME280;26543;51.976;4.616;2022-07-06T10:53:10;51737.53;;;-140.72;58.09
38197;BME280;26543;51.976;4.616;2022-07-06T10:55:36;51727.41;;;-140.72;65.28
38197;BME280;26543;51.976;4.616;2022-07-06T10:58:02;51721.31;;;-140.72;67.77
38197;BME280;26543;51.976;4.616;2022-07-06T11:05:59;51749.72;;;-140.72;59.67
38197;BME280;26543;51.976;4.616;2022-07-06T11:08:43;51709.13;;;-140.72;56.88
38197;BME280;26543;51.976;4.616;2022-07-06T11:13:47;51818.69;;;-140.72;61.98
38197;BME280;26543;51.976;4.616;2022-07-06T11:16:13;51763.91;;;-140.72;61.21
38197;BME280;26543;51.976;4.616;2022-07-06T11:18:42;51735.50;;;-140.72;60.87
38197;BME280;26543;51.976;4.616;2022-07-06T11:21:21;51751.75;;;-140.72;62.64
38197;BME280;26543;51.976;4.616;2022-07-06T11:23:47;51729.44;;;-140.72;64.58
38197;BME280;26543;51.976;4.616;2022-07-06T11:26:13;51660.44;;;-140.72;53.13
38197;BME280;26543;51.976;4.616;2022-07-06T11:28:38;51711.16;;;-140.72;54.49
38197;BME280;26543;51.976;4.616;2022-07-06T11:31:03;51709.13;;;-140.72;54.89
38197;BME280;26543;51.976;4.616;2022-07-06T11:33:29;51741.59;;;-140.72;61.69
38197;BME280;26543;51.976;4.616;2022-07-06T11:36:10;51692.91;;;-140.72;53.81
38197;BME280;26543;51.976;4.616;2022-07-06T11:38:36;51654.34;;;-140.72;58.84
38197;BME280;26543;51.976;4.616;2022-07-06T11:41:01;51636.09;;;-140.72;62.49
38197;BME280;26543;51.976;4.616;2022-07-06T11:43:26;51713.19;;;-140.72;59.45
38197;BME280;26543;51.976;4.616;2022-07-06T11:45:51;51684.78;;;-140.72;60.90
38197;BME280;26543;51.976;4.616;2022-07-06T11:48:17;51654.34;;;-140.72;62.18
38197;BME280;26543;51.976;4.616;2022-07-06T11:50:42;51632.03;;;-140.72;55.98
38197;BME280;26543;51.976;4.616;2022-07-06T11:53:07;51615.81;;;-140.72;57.07
38197;BME280;26543;51.976;4.616;2022-07-06T11:55:33;51603.63;;;-140.72;57.74
38197;BME280;26543;51.976;4.616;2022-07-06T11:57:58;51682.75;;;-140.72;53.39
38197;BME280;26543;51.976;4.616;2022-07-06T12:00:24;51759.84;;;-140.72;61.98
38197;BME280;26543;51.976;4.616;2022-07-06T12:02:59;51794.34;;;-140.72;64.36
38197;BME280;26543;51.976;4.616;2022-07-06T12:05:31;51808.53;;;-140.72;70.31
38197;BME280;26543;51.976;4.616;2022-07-06T12:08:08;51887.66;;;-140.72;71.58
38197;BME280;26543;51.976;4.616;2022-07-06T12:10:34;51928.25;;;-140.72;80.27
38197;BME280;26543;51.976;4.616;2022-07-06T12:13:04;51912.03;;;-140.72;85.06
38197;BME280;26543;51.976;4.616;2022-07-06T12:15:29;51928.25;;;-140.72;86.95
38197;BME280;26543;51.976;4.616;2022-07-06T12:17:54;51938.41;;;-140.72;85.15
38197;BME280;26543;51.976;4.616;2022-07-06T12:20:20;51901.88;;;-140.72;85.15
38197;BME280;26543;51.976;4.616;2022-07-06T12:22:45;51983.03;;;-140.72;88.24
38197;BME280;26543;51.976;4.616;2022-07-06T12:25:10;51983.03;;;-140.72;96.89
38197;BME280;26543;51.976;4.616;2022-07-06T12:27:35;51999.25;;;-140.72;92.02
38197;BME280;26543;51.976;4.616;2022-07-06T12:30:08;52005.34;;;-140.72;100.00
38197;BME280;26543;51.976;4.616;2022-07-06T12:32:33;52011.44;;;-140.72;100.00
38197;BME280;26543;51.976;4.616;2022-07-06T12:35:04;52007.38;;;-140.72;100.00
38197;BME280;26543;51.976;4.616;2022-07-06T12:37:30;52021.56;;;-140.72;99.79
38197;BME280;26543;51.976;4.616;2022-07-06T12:39:55;51964.78;;;-140.72;100.00